sensor_id;sensor_type;location;lat;lon;timestamp;P1;durP1;ratioP1;P2;durP2;ratioP2
17826;SDS011;9038;48.208;16.308;2022-10-16T00:00:24;80.53;;;51.43;;
17826;SDS011;9038;48.208;16.308;2022-10-16T00:02:26;74.77;;;48.97;;
17826;SDS011;9038;48.208;16.308;2022-10-16T00:04:28;71.87;;;49.63;;
17826;SDS011;9038;48.208;16.308;2022-10-16T00:06:30;83.27;;;58.60;;
17826;SDS011;9038;48.208;16.308;2022-10-16T00:08:33;67.03;;;46.90;;
17826;SDS011;9038;48.208;16.308;2022-10-16T00:10:35;72.53;;;49.77;;
17826;SDS011;9038;48.208;16.308;2022-10-16T00:12:37;120.33;;;55.80;;
17826;SDS011;9038;48.208;16.308;2022-10-16T00:14:39;107.90;;;55.53;;
17826;SDS011;9038;48.208;16.308;2022-10-16T00:16:45;115.10;;;54.10;;
17826;SDS011;9038;48.208;16.308;2022-10-16T00:18:47;210.83;;;60.37;;
17826;SDS011;9038;48.208;16.308;2022-10-16T00:20:49;146.80;;;57.67;;
17826;SDS011;9038;48.208;16.308;2022-10-16T00:22:51;168.37;;;60.77;;
17826;SDS011;9038;48.208;16.308;2022-10-16T00:24:53;218.20;;;59.17;;
17826;SDS011;9038;48.208;16.308;2022-10-16T00:26:55;128.60;;;56.73;;
17826;SDS011;9038;48.208;16.308;2022-10-16T00:28:57;271.03;;;61.23;;
17826;SDS011;9038;48.208;16.308;2022-10-16T00:30:59;121.30;;;54.97;;
17826;SDS011;9038;48.208;16.308;2022-10-16T00:33:05;205.97;;;57.33;;
17826;SDS011;9038;48.208;16.308;2022-10-16T00:35:07;127.13;;;55.20;;
17826;SDS011;9038;48.208;16.308;2022-10-16T00:37:09;156.03;;;55.73;;
17826;SDS011;9038;48.208;16.308;2022-10-16T00:39:11;158.23;;;59.63;;
17826;SDS011;9038;48.208;16.308;2022-10-16T00:41:14;186.33;;;56.43;;
17826;SDS011;9038;48.208;16.308;2022-10-16T00:43:32;185.67;;;58.67;;
17826;SDS011;9038;48.208;16.308;2022-10-16T00:45:37;127.17;;;54.33;;
17826;SDS011;9038;48.208;16.308;2022-10-16T00:47:39;122.00;;;57.33;;
17826;SDS011;9038;48.208;16.308;2022-10-16T00:49:46;104.67;;;56.87;;
17826;SDS011;9038;48.208;16.308;2022-10-16T00:51:50;96.03;;;54.53;;
17826;SDS011;9038;48.208;16.308;2022-10-16T00:53:53;117.40;;;55.60;;
17826;SDS011;9038;48.208;16.308;2022-10-16T00:55:56;98.03;;;54.67;;
17826;SDS011;9038;48.208;16.308;2022-10-16T00:57:58;112.10;;;54.93;;
17826;SDS011;9038;48.208;16.308;2022-10-16T01:00:01;106.43;;;56.37;;
17826;SDS011;9038;48.208;16.308;2022-10-16T01:02:03;109.43;;;58.13;;
17826;SDS011;9038;48.208;16.308;2022-10-16T01:04:07;94.30;;;55.87;;
17826;SDS011;9038;48.208;16.308;2022-10-16T01:06:18;102.63;;;57.10;;
17826;SDS011;9038;48.208;16.308;2022-10-16T01:08:26;92.33;;;55.47;;
17826;SDS011;9038;48.208;16.308;2022-10-16T01:10:36;97.10;;;55.37;;
17826;SDS011;9038;48.208;16.308;2022-10-16T01:12:42;94.70;;;54.90;;
17826;SDS011;9038;48.208;16.308;2022-10-16T01:14:49;100.10;;;56.40;;
17826;SDS011;9038;48.208;16.308;2022-10-16T01:16:58;93.27;;;54.87;;
17826;SDS011;9038;48.208;16.308;2022-10-16T01:19:05;85.37;;;52.03;;
17826;SDS011;9038;48.208;16.308;2022-10-16T01:21:13;77.63;;;49.43;;
17826;SDS011;9038;48.208;16.308;2022-10-16T01:23:27;76.37;;;49.03;;
17826;SDS011;9038;48.208;16.308;2022-10-16T01:25:52;77.57;;;49.10;;
17826;SDS011;9038;48.208;16.308;2022-10-16T01:28:13;73.53;;;48.63;;
17826;SDS011;9038;48.208;16.308;2022-10-16T01:30:18;84.10;;;52.93;;
17826;SDS011;9038;48.208;16.308;2022-10-16T01:32:27;82.50;;;52.13;;
17826;SDS011;9038;48.208;16.308;2022-10-16T01:34:35;81.60;;;51.67;;
17826;SDS011;9038;48.208;16.308;2022-10-16T01:36:40;80.53;;;50.33;;
17826;SDS011;9038;48.208;16.308;2022-10-16T01:38:47;83.43;;;51.20;;
17826;SDS011;9038;48.208;16.308;2022-10-16T01:40:52;86.77;;;52.47;;
17826;SDS011;9038;48.208;16.308;2022-10-16T01:42:59;76.70;;;48.80;;
17826;SDS011;9038;48.208;16.308;2022-10-16T01:45:06;87.27;;;49.97;;
17826;SDS011;9038;48.208;16.308;2022-10-16T01:47:11;84.87;;;51.30;;
17826;SDS011;9038;48.208;16.308;2022-10-16T01:49:14;80.80;;;50.23;;
17826;SDS011;9038;48.208;16.308;2022-10-16T01:51:18;79.80;;;50.50;;
17826;SDS011;9038;48.208;16.308;2022-10-16T01:53:21;70.87;;;46.97;;
17826;SDS011;9038;48.208;16.308;2022-10-16T01:55:25;73.93;;;47.73;;
17826;SDS011;9038;48.208;16.308;2022-10-16T01:57:33;64.90;;;45.27;;
17826;SDS011;9038;48.208;16.308;2022-10-16T01:59:39;64.90;;;44.77;;
17826;SDS011;9038;48.208;16.308;2022-10-16T02:01:47;68.53;;;46.13;;
17826;SDS011;9038;48.208;16.308;2022-10-16T02:03:53;65.77;;;44.73;;
17826;SDS011;9038;48.208;16.308;2022-10-16T02:05:59;66.70;;;43.73;;
17826;SDS011;9038;48.208;16.308;2022-10-16T02:08:01;62.67;;;44.23;;
17826;SDS011;9038;48.208;16.308;2022-10-16T02:10:04;62.03;;;43.73;;
17826;SDS011;9038;48.208;16.308;2022-10-16T02:12:08;66.20;;;44.53;;
17826;SDS011;9038;48.208;16.308;2022-10-16T02:14:15;61.07;;;42.60;;
17826;SDS011;9038;48.208;16.308;2022-10-16T02:16:17;59.33;;;42.10;;
17826;SDS011;9038;48.208;16.308;2022-10-16T02:18:20;61.03;;;42.03;;
17826;SDS011;9038;48.208;16.308;2022-10-16T02:20:24;59.53;;;41.83;;
17826;SDS011;9038;48.208;16.308;2022-10-16T02:22:32;60.93;;;42.47;;
17826;SDS011;9038;48.208;16.308;2022-10-16T02:24:37;60.77;;;42.23;;
17826;SDS011;9038;48.208;16.308;2022-10-16T02:26:43;64.17;;;40.97;;
17826;SDS011;9038;48.208;16.308;2022-10-16T02:28:52;57.87;;;40.53;;
17826;SDS011;9038;48.208;16.308;2022-10-16T02:30:57;79.17;;;41.07;;
17826;SDS011;9038;48.208;16.308;2022-10-16T02:33:03;62.73;;;40.93;;
17826;SDS011;9038;48.208;16.308;2022-10-16T02:35:10;79.33;;;42.73;;
17826;SDS011;9038;48.208;16.308;2022-10-16T02:37:12;58.47;;;40.10;;
17826;SDS011;9038;48.208;16.308;2022-10-16T02:39:14;60.87;;;40.77;;
17826;SDS011;9038;48.208;16.308;2022-10-16T02:41:17;56.10;;;40.00;;
17826;SDS011;9038;48.208;16.308;2022-10-16T02:43:21;62.50;;;41.27;;
17826;SDS011;9038;48.208;16.308;2022-10-16T02:45:23;63.63;;;40.43;;
17826;SDS011;9038;48.208;16.308;2022-10-16T02:47:26;60.63;;;41.80;;
17826;SDS011;9038;48.208;16.308;2022-10-16T02:49:27;60.47;;;41.60;;
17826;SDS011;9038;48.208;16.308;2022-10-16T02:51:31;62.00;;;42.07;;
17826;SDS011;9038;48.208;16.308;2022-10-16T02:53:33;68.97;;;41.10;;
17826;SDS011;9038;48.208;16.308;2022-10-16T02:55:35;70.83;;;40.97;;
17826;SDS011;9038;48.208;16.308;2022-10-16T02:57:36;77.83;;;40.60;;
17826;SDS011;9038;48.208;16.308;2022-10-16T02:59:40;60.93;;;40.87;;
17826;SDS011;9038;48.208;16.308;2022-10-16T03:01:42;58.50;;;40.53;;
17826;SDS011;9038;48.208;16.308;2022-10-16T03:03:44;55.93;;;38.77;;
17826;SDS011;9038;48.208;16.308;2022-10-16T03:05:46;54.97;;;38.07;;
17826;SDS011;9038;48.208;16.308;2022-10-16T03:07:49;52.60;;;38.97;;
17826;SDS011;9038;48.208;16.308;2022-10-16T03:09:52;54.20;;;38.37;;
17826;SDS011;9038;48.208;16.308;2022-10-16T03:11:54;55.37;;;37.60;;
17826;SDS011;9038;48.208;16.308;2022-10-16T03:13:56;68.40;;;39.07;;
17826;SDS011;9038;48.208;16.308;2022-10-16T03:15:58;46.27;;;35.17;;
17826;SDS011;9038;48.208;16.308;2022-10-16T03:18:00;52.93;;;36.63;;
17826;SDS011;9038;48.208;16.308;2022-10-16T03:20:02;59.43;;;38.93;;
17826;SDS011;9038;48.208;16.308;2022-10-16T03:22:05;50.00;;;36.83;;
17826;SDS011;9038;48.208;16.308;2022-10-16T03:24:08;53.40;;;37.73;;
17826;SDS011;9038;48.208;16.308;2022-10-16T03:26:10;53.63;;;37.70;;
17826;SDS011;9038;48.208;16.308;2022-10-16T03:28:12;51.03;;;35.70;;
17826;SDS011;9038;48.208;16.308;2022-10-16T03:30:14;53.43;;;36.23;;
17826;SDS011;9038;48.208;16.308;2022-10-16T03:32:16;53.63;;;37.43;;
17826;SDS011;9038;48.208;16.308;2022-10-16T03:34:18;48.10;;;34.23;;
17826;SDS011;9038;48.208;16.308;2022-10-16T03:36:20;51.17;;;37.20;;
17826;SDS011;9038;48.208;16.308;2022-10-16T03:38:22;50.40;;;35.73;;
17826;SDS011;9038;48.208;16.308;2022-10-16T03:40:25;46.17;;;36.03;;
17826;SDS011;9038;48.208;16.308;2022-10-16T03:42:27;51.93;;;38.07;;
17826;SDS011;9038;48.208;16.308;2022-10-16T03:44:29;51.70;;;36.10;;
17826;SDS011;9038;48.208;16.308;2022-10-16T03:46:31;45.60;;;34.83;;
17826;SDS011;9038;48.208;16.308;2022-10-16T03:48:33;43.90;;;32.97;;
17826;SDS011;9038;48.208;16.308;2022-10-16T03:50:35;44.77;;;33.93;;
17826;SDS011;9038;48.208;16.308;2022-10-16T03:52:37;47.90;;;35.83;;
17826;SDS011;9038;48.208;16.308;2022-10-16T03:54:38;48.10;;;35.00;;
17826;SDS011;9038;48.208;16.308;2022-10-16T03:56:42;45.17;;;34.17;;
17826;SDS011;9038;48.208;16.308;2022-10-16T03:58:44;46.03;;;33.53;;
17826;SDS011;9038;48.208;16.308;2022-10-16T04:00:45;43.17;;;33.53;;
17826;SDS011;9038;48.208;16.308;2022-10-16T04:02:48;43.57;;;34.33;;
17826;SDS011;9038;48.208;16.308;2022-10-16T04:04:50;42.30;;;33.47;;
17826;SDS011;9038;48.208;16.308;2022-10-16T04:06:52;46.10;;;34.47;;
17826;SDS011;9038;48.208;16.308;2022-10-16T04:08:54;45.90;;;35.17;;
17826;SDS011;9038;48.208;16.308;2022-10-16T04:10:56;48.93;;;35.83;;
17826;SDS011;9038;48.208;16.308;2022-10-16T04:12:59;47.07;;;35.33;;
17826;SDS011;9038;48.208;16.308;2022-10-16T04:15:01;49.60;;;36.10;;
17826;SDS011;9038;48.208;16.308;2022-10-16T04:17:03;50.17;;;36.23;;
17826;SDS011;9038;48.208;16.308;2022-10-16T04:19:07;55.03;;;37.47;;
17826;SDS011;9038;48.208;16.308;2022-10-16T04:21:10;54.57;;;37.20;;
17826;SDS011;9038;48.208;16.308;2022-10-16T04:23:11;59.37;;;38.83;;
17826;SDS011;9038;48.208;16.308;2022-10-16T04:25:13;59.57;;;37.53;;
17826;SDS011;9038;48.208;16.308;2022-10-16T04:27:15;67.90;;;40.13;;
17826;SDS011;9038;48.208;16.308;2022-10-16T04:29:19;64.03;;;39.53;;
17826;SDS011;9038;48.208;16.308;2022-10-16T04:31:21;66.73;;;39.53;;
17826;SDS011;9038;48.208;16.308;2022-10-16T04:33:23;97.43;;;41.50;;
17826;SDS011;9038;48.208;16.308;2022-10-16T04:35:24;158.33;;;42.20;;
17826;SDS011;9038;48.208;16.308;2022-10-16T04:37:26;64.53;;;37.10;;
17826;SDS011;9038;48.208;16.308;2022-10-16T04:39:28;71.50;;;37.90;;
17826;SDS011;9038;48.208;16.308;2022-10-16T04:41:30;71.73;;;37.63;;
17826;SDS011;9038;48.208;16.308;2022-10-16T04:43:32;56.17;;;35.47;;
17826;SDS011;9038;48.208;16.308;2022-10-16T04:45:36;63.87;;;36.47;;
17826;SDS011;9038;48.208;16.308;2022-10-16T04:47:38;66.00;;;35.80;;
17826;SDS011;9038;48.208;16.308;2022-10-16T04:49:40;75.73;;;37.80;;
17826;SDS011;9038;48.208;16.308;2022-10-16T04:51:41;65.07;;;38.07;;
17826;SDS011;9038;48.208;16.308;2022-10-16T04:53:44;85.30;;;38.57;;
17826;SDS011;9038;48.208;16.308;2022-10-16T04:55:45;70.23;;;38.17;;
17826;SDS011;9038;48.208;16.308;2022-10-16T04:57:47;74.00;;;35.90;;
17826;SDS011;9038;48.208;16.308;2022-10-16T04:59:49;54.80;;;35.07;;
17826;SDS011;9038;48.208;16.308;2022-10-16T05:01:52;59.03;;;35.77;;
17826;SDS011;9038;48.208;16.308;2022-10-16T05:03:54;63.50;;;36.77;;
17826;SDS011;9038;48.208;16.308;2022-10-16T05:05:56;61.90;;;36.07;;
17826;SDS011;9038;48.208;16.308;2022-10-16T05:07:58;57.63;;;34.87;;
17826;SDS011;9038;48.208;16.308;2022-10-16T05:10:00;84.40;;;36.40;;
17826;SDS011;9038;48.208;16.308;2022-10-16T05:12:02;68.97;;;38.33;;
17826;SDS011;9038;48.208;16.308;2022-10-16T05:14:04;67.37;;;38.23;;
17826;SDS011;9038;48.208;16.308;2022-10-16T05:16:06;70.57;;;38.87;;
17826;SDS011;9038;48.208;16.308;2022-10-16T05:18:09;61.37;;;37.57;;
17826;SDS011;9038;48.208;16.308;2022-10-16T05:20:11;64.87;;;37.50;;
17826;SDS011;9038;48.208;16.308;2022-10-16T05:22:13;66.80;;;36.33;;
17826;SDS011;9038;48.208;16.308;2022-10-16T05:24:15;59.83;;;37.27;;
17826;SDS011;9038;48.208;16.308;2022-10-16T05:26:17;55.13;;;33.90;;
17826;SDS011;9038;48.208;16.308;2022-10-16T05:28:19;89.53;;;37.10;;
17826;SDS011;9038;48.208;16.308;2022-10-16T05:30:21;100.13;;;40.53;;
17826;SDS011;9038;48.208;16.308;2022-10-16T05:32:23;112.23;;;41.10;;
17826;SDS011;9038;48.208;16.308;2022-10-16T05:34:27;90.93;;;40.10;;
17826;SDS011;9038;48.208;16.308;2022-10-16T05:36:29;74.67;;;40.07;;
17826;SDS011;9038;48.208;16.308;2022-10-16T05:38:31;114.30;;;38.93;;
17826;SDS011;9038;48.208;16.308;2022-10-16T05:40:32;172.03;;;40.47;;
17826;SDS011;9038;48.208;16.308;2022-10-16T05:42:35;90.67;;;37.90;;
17826;SDS011;9038;48.208;16.308;2022-10-16T05:44:37;147.23;;;38.20;;
17826;SDS011;9038;48.208;16.308;2022-10-16T05:46:39;94.97;;;36.73;;
17826;SDS011;9038;48.208;16.308;2022-10-16T05:48:41;135.83;;;38.43;;
17826;SDS011;9038;48.208;16.308;2022-10-16T05:50:44;84.73;;;35.27;;
17826;SDS011;9038;48.208;16.308;2022-10-16T05:52:46;115.07;;;34.57;;
17826;SDS011;9038;48.208;16.308;2022-10-16T05:54:48;77.60;;;35.07;;
17826;SDS011;9038;48.208;16.308;2022-10-16T05:56:50;77.40;;;33.37;;
17826;SDS011;9038;48.208;16.308;2022-10-16T05:58:52;105.30;;;35.20;;
17826;SDS011;9038;48.208;16.308;2022-10-16T06:00:54;57.73;;;32.70;;
17826;SDS011;9038;48.208;16.308;2022-10-16T06:02:57;138.93;;;36.33;;
17826;SDS011;9038;48.208;16.308;2022-10-16T06:04:58;82.03;;;33.87;;
17826;SDS011;9038;48.208;16.308;2022-10-16T06:07:02;80.33;;;34.13;;
17826;SDS011;9038;48.208;16.308;2022-10-16T06:09:04;43.03;;;30.17;;
17826;SDS011;9038;48.208;16.308;2022-10-16T06:11:07;59.87;;;31.57;;
17826;SDS011;9038;48.208;16.308;2022-10-16T06:13:10;45.37;;;29.57;;
17826;SDS011;9038;48.208;16.308;2022-10-16T06:15:12;37.17;;;26.87;;
17826;SDS011;9038;48.208;16.308;2022-10-16T06:17:14;33.57;;;26.37;;
17826;SDS011;9038;48.208;16.308;2022-10-16T06:19:16;36.10;;;25.30;;
17826;SDS011;9038;48.208;16.308;2022-10-16T06:21:19;43.90;;;27.80;;
17826;SDS011;9038;48.208;16.308;2022-10-16T06:23:24;50.23;;;27.97;;
17826;SDS011;9038;48.208;16.308;2022-10-16T06:25:26;54.57;;;31.60;;
17826;SDS011;9038;48.208;16.308;2022-10-16T06:27:28;63.53;;;33.10;;
17826;SDS011;9038;48.208;16.308;2022-10-16T06:29:30;71.73;;;33.17;;
17826;SDS011;9038;48.208;16.308;2022-10-16T06:31:32;57.60;;;31.37;;
17826;SDS011;9038;48.208;16.308;2022-10-16T06:33:34;57.97;;;33.63;;
17826;SDS011;9038;48.208;16.308;2022-10-16T06:35:36;76.70;;;35.13;;
17826;SDS011;9038;48.208;16.308;2022-10-16T06:37:38;127.40;;;36.83;;
17826;SDS011;9038;48.208;16.308;2022-10-16T06:39:41;60.87;;;34.13;;
17826;SDS011;9038;48.208;16.308;2022-10-16T06:41:43;96.17;;;36.90;;
17826;SDS011;9038;48.208;16.308;2022-10-16T06:43:45;181.13;;;39.03;;
17826;SDS011;9038;48.208;16.308;2022-10-16T06:45:50;80.57;;;35.97;;
17826;SDS011;9038;48.208;16.308;2022-10-16T06:47:52;53.77;;;34.90;;
17826;SDS011;9038;48.208;16.308;2022-10-16T06:49:54;58.00;;;35.10;;
17826;SDS011;9038;48.208;16.308;2022-10-16T06:51:56;98.63;;;34.80;;
17826;SDS011;9038;48.208;16.308;2022-10-16T06:53:58;141.17;;;38.23;;
17826;SDS011;9038;48.208;16.308;2022-10-16T06:56:07;66.83;;;33.47;;
17826;SDS011;9038;48.208;16.308;2022-10-16T06:58:09;55.27;;;33.53;;
17826;SDS011;9038;48.208;16.308;2022-10-16T07:00:11;60.17;;;32.93;;
17826;SDS011;9038;48.208;16.308;2022-10-16T07:02:13;50.20;;;33.83;;
17826;SDS011;9038;48.208;16.308;2022-10-16T07:04:15;48.90;;;33.07;;
17826;SDS011;9038;48.208;16.308;2022-10-16T07:06:18;45.90;;;32.17;;
17826;SDS011;9038;48.208;16.308;2022-10-16T07:08:21;50.77;;;33.10;;
17826;SDS011;9038;48.208;16.308;2022-10-16T07:10:23;48.83;;;33.87;;
17826;SDS011;9038;48.208;16.308;2022-10-16T07:12:27;44.17;;;31.57;;
17826;SDS011;9038;48.208;16.308;2022-10-16T07:14:29;50.40;;;34.20;;
17826;SDS011;9038;48.208;16.308;2022-10-16T07:16:31;45.47;;;33.97;;
17826;SDS011;9038;48.208;16.308;2022-10-16T07:18:34;44.10;;;32.37;;
17826;SDS011;9038;48.208;16.308;2022-10-16T07:20:36;50.07;;;35.13;;
17826;SDS011;9038;48.208;16.308;2022-10-16T07:22:38;50.00;;;34.17;;
17826;SDS011;9038;48.208;16.308;2022-10-16T07:24:40;48.40;;;35.07;;
17826;SDS011;9038;48.208;16.308;2022-10-16T07:26:44;45.83;;;33.80;;
17826;SDS011;9038;48.208;16.308;2022-10-16T07:28:48;48.13;;;34.20;;
17826;SDS011;9038;48.208;16.308;2022-10-16T07:30:51;64.30;;;34.50;;
17826;SDS011;9038;48.208;16.308;2022-10-16T07:32:53;61.77;;;35.47;;
17826;SDS011;9038;48.208;16.308;2022-10-16T07:34:55;44.23;;;34.27;;
17826;SDS011;9038;48.208;16.308;2022-10-16T07:36:57;50.60;;;35.53;;
17826;SDS011;9038;48.208;16.308;2022-10-16T07:38:58;48.60;;;34.93;;
17826;SDS011;9038;48.208;16.308;2022-10-16T07:41:01;56.63;;;36.77;;
17826;SDS011;9038;48.208;16.308;2022-10-16T07:43:03;53.20;;;36.03;;
17826;SDS011;9038;48.208;16.308;2022-10-16T07:45:08;75.70;;;38.43;;
17826;SDS011;9038;48.208;16.308;2022-10-16T07:47:10;66.80;;;38.10;;
17826;SDS011;9038;48.208;16.308;2022-10-16T07:49:12;73.90;;;38.67;;
17826;SDS011;9038;48.208;16.308;2022-10-16T07:51:15;65.10;;;37.33;;
17826;SDS011;9038;48.208;16.308;2022-10-16T07:53:18;62.57;;;37.17;;
17826;SDS011;9038;48.208;16.308;2022-10-16T07:55:20;51.13;;;36.90;;
17826;SDS011;9038;48.208;16.308;2022-10-16T07:57:21;47.07;;;35.73;;
17826;SDS011;9038;48.208;16.308;2022-10-16T07:59:23;55.63;;;34.93;;
17826;SDS011;9038;48.208;16.308;2022-10-16T08:01:27;44.10;;;33.53;;
17826;SDS011;9038;48.208;16.308;2022-10-16T08:03:29;46.43;;;34.10;;
17826;SDS011;9038;48.208;16.308;2022-10-16T08:05:31;44.90;;;33.00;;
17826;SDS011;9038;48.208;16.308;2022-10-16T08:07:34;46.57;;;35.33;;
17826;SDS011;9038;48.208;16.308;2022-10-16T08:09:35;52.60;;;36.20;;
17826;SDS011;9038;48.208;16.308;2022-10-16T08:11:37;49.63;;;35.73;;
17826;SDS011;9038;48.208;16.308;2022-10-16T08:13:39;162.77;;;39.10;;
17826;SDS011;9038;48.208;16.308;2022-10-16T08:15:41;47.70;;;34.50;;
17826;SDS011;9038;48.208;16.308;2022-10-16T08:17:44;45.23;;;34.17;;
17826;SDS011;9038;48.208;16.308;2022-10-16T08:19:55;60.50;;;35.57;;
17826;SDS011;9038;48.208;16.308;2022-10-16T08:21:56;48.83;;;37.40;;
17826;SDS011;9038;48.208;16.308;2022-10-16T08:23:58;48.33;;;35.17;;
17826;SDS011;9038;48.208;16.308;2022-10-16T08:26:04;41.47;;;33.60;;
17826;SDS011;9038;48.208;16.308;2022-10-16T08:28:07;41.73;;;33.20;;
17826;SDS011;9038;48.208;16.308;2022-10-16T08:30:10;43.17;;;33.73;;
17826;SDS011;9038;48.208;16.308;2022-10-16T08:32:13;40.57;;;32.53;;
17826;SDS011;9038;48.208;16.308;2022-10-16T08:34:16;46.40;;;34.47;;
17826;SDS011;9038;48.208;16.308;2022-10-16T08:36:18;42.00;;;32.37;;
17826;SDS011;9038;48.208;16.308;2022-10-16T08:38:20;45.37;;;34.17;;
17826;SDS011;9038;48.208;16.308;2022-10-16T08:40:23;48.27;;;35.40;;
17826;SDS011;9038;48.208;16.308;2022-10-16T08:42:30;39.93;;;32.50;;
17826;SDS011;9038;48.208;16.308;2022-10-16T08:47:07;46.20;;;35.03;;
17826;SDS011;9038;48.208;16.308;2022-10-16T08:49:16;44.57;;;35.37;;
17826;SDS011;9038;48.208;16.308;2022-10-16T08:51:19;43.73;;;32.63;;
17826;SDS011;9038;48.208;16.308;2022-10-16T08:53:25;42.90;;;34.20;;
17826;SDS011;9038;48.208;16.308;2022-10-16T08:55:33;41.87;;;33.63;;
17826;SDS011;9038;48.208;16.308;2022-10-16T08:57:39;40.53;;;33.27;;
17826;SDS011;9038;48.208;16.308;2022-10-16T08:59:41;44.33;;;34.83;;
17826;SDS011;9038;48.208;16.308;2022-10-16T09:01:44;47.23;;;35.27;;
17826;SDS011;9038;48.208;16.308;2022-10-16T09:06:35;43.83;;;34.53;;
17826;SDS011;9038;48.208;16.308;2022-10-16T09:08:46;46.00;;;35.40;;
17826;SDS011;9038;48.208;16.308;2022-10-16T09:11:02;45.67;;;36.70;;
17826;SDS011;9038;48.208;16.308;2022-10-16T09:13:14;48.13;;;36.37;;
17826;SDS011;9038;48.208;16.308;2022-10-16T09:15:24;43.50;;;34.73;;
17826;SDS011;9038;48.208;16.308;2022-10-16T09:17:32;47.30;;;37.43;;
17826;SDS011;9038;48.208;16.308;2022-10-16T09:19:44;48.37;;;37.50;;
17826;SDS011;9038;48.208;16.308;2022-10-16T09:21:51;45.50;;;37.03;;
17826;SDS011;9038;48.208;16.308;2022-10-16T09:23:54;49.30;;;38.67;;
17826;SDS011;9038;48.208;16.308;2022-10-16T09:26:00;46.40;;;37.67;;
17826;SDS011;9038;48.208;16.308;2022-10-16T09:28:03;47.97;;;35.60;;
17826;SDS011;9038;48.208;16.308;2022-10-16T09:30:10;44.40;;;37.47;;
17826;SDS011;9038;48.208;16.308;2022-10-16T09:32:14;44.03;;;36.27;;
17826;SDS011;9038;48.208;16.308;2022-10-16T09:34:21;43.27;;;36.97;;
17826;SDS011;9038;48.208;16.308;2022-10-16T09:36:30;44.00;;;35.93;;
17826;SDS011;9038;48.208;16.308;2022-10-16T09:38:40;43.93;;;37.27;;
17826;SDS011;9038;48.208;16.308;2022-10-16T09:40:42;41.70;;;35.73;;
17826;SDS011;9038;48.208;16.308;2022-10-16T09:42:44;42.60;;;36.03;;
17826;SDS011;9038;48.208;16.308;2022-10-16T09:44:49;46.67;;;38.50;;
17826;SDS011;9038;48.208;16.308;2022-10-16T09:47:00;42.87;;;36.03;;
17826;SDS011;9038;48.208;16.308;2022-10-16T09:49:04;40.83;;;34.50;;
17826;SDS011;9038;48.208;16.308;2022-10-16T09:51:20;41.57;;;34.73;;
17826;SDS011;9038;48.208;16.308;2022-10-16T09:53:27;38.83;;;32.87;;
17826;SDS011;9038;48.208;16.308;2022-10-16T09:55:49;45.07;;;34.90;;
17826;SDS011;9038;48.208;16.308;2022-10-16T09:57:52;42.67;;;35.10;;
17826;SDS011;9038;48.208;16.308;2022-10-16T09:59:56;41.80;;;35.43;;
17826;SDS011;9038;48.208;16.308;2022-10-16T10:02:01;43.37;;;37.27;;
17826;SDS011;9038;48.208;16.308;2022-10-16T10:04:05;38.67;;;34.30;;
17826;SDS011;9038;48.208;16.308;2022-10-16T10:06:16;39.90;;;34.50;;
17826;SDS011;9038;48.208;16.308;2022-10-16T10:08:20;36.97;;;32.07;;
17826;SDS011;9038;48.208;16.308;2022-10-16T10:10:24;38.57;;;33.43;;
17826;SDS011;9038;48.208;16.308;2022-10-16T10:12:28;38.33;;;33.07;;
17826;SDS011;9038;48.208;16.308;2022-10-16T10:14:34;37.70;;;33.27;;
17826;SDS011;9038;48.208;16.308;2022-10-16T10:16:38;38.33;;;32.50;;
17826;SDS011;9038;48.208;16.308;2022-10-16T10:18:40;36.13;;;32.03;;
17826;SDS011;9038;48.208;16.308;2022-10-16T10:20:42;36.43;;;32.63;;
17826;SDS011;9038;48.208;16.308;2022-10-16T10:22:44;36.10;;;32.20;;
17826;SDS011;9038;48.208;16.308;2022-10-16T10:24:54;39.17;;;31.67;;
17826;SDS011;9038;48.208;16.308;2022-10-16T10:27:15;34.33;;;30.60;;
17826;SDS011;9038;48.208;16.308;2022-10-16T10:29:22;34.10;;;30.40;;
17826;SDS011;9038;48.208;16.308;2022-10-16T10:31:44;36.43;;;32.47;;
17826;SDS011;9038;48.208;16.308;2022-10-16T10:33:53;36.67;;;32.70;;
17826;SDS011;9038;48.208;16.308;2022-10-16T10:36:02;38.10;;;33.83;;
17826;SDS011;9038;48.208;16.308;2022-10-16T10:38:19;37.03;;;32.10;;
17826;SDS011;9038;48.208;16.308;2022-10-16T10:40:31;38.20;;;32.93;;
17826;SDS011;9038;48.208;16.308;2022-10-16T10:42:41;37.40;;;33.40;;
17826;SDS011;9038;48.208;16.308;2022-10-16T10:44:55;36.60;;;32.33;;
17826;SDS011;9038;48.208;16.308;2022-10-16T10:47:11;37.03;;;33.00;;
17826;SDS011;9038;48.208;16.308;2022-10-16T10:49:24;34.97;;;31.13;;
17826;SDS011;9038;48.208;16.308;2022-10-16T10:51:41;37.50;;;32.63;;
17826;SDS011;9038;48.208;16.308;2022-10-16T10:53:55;37.23;;;33.13;;
17826;SDS011;9038;48.208;16.308;2022-10-16T10:56:07;38.40;;;32.87;;
17826;SDS011;9038;48.208;16.308;2022-10-16T10:58:29;40.33;;;34.63;;
17826;SDS011;9038;48.208;16.308;2022-10-16T11:00:47;36.63;;;32.43;;
17826;SDS011;9038;48.208;16.308;2022-10-16T11:02:58;39.77;;;31.83;;
17826;SDS011;9038;48.208;16.308;2022-10-16T11:05:16;37.43;;;33.13;;
17826;SDS011;9038;48.208;16.308;2022-10-16T11:07:38;35.40;;;31.53;;
17826;SDS011;9038;48.208;16.308;2022-10-16T11:09:44;38.83;;;33.17;;
17826;SDS011;9038;48.208;16.308;2022-10-16T11:11:50;35.70;;;31.80;;
17826;SDS011;9038;48.208;16.308;2022-10-16T11:13:58;36.57;;;31.07;;
17826;SDS011;9038;48.208;16.308;2022-10-16T11:16:06;32.57;;;29.07;;
17826;SDS011;9038;48.208;16.308;2022-10-16T11:18:16;31.37;;;27.97;;
17826;SDS011;9038;48.208;16.308;2022-10-16T11:20:22;31.73;;;28.33;;
17826;SDS011;9038;48.208;16.308;2022-10-16T11:22:27;34.03;;;30.20;;
17826;SDS011;9038;48.208;16.308;2022-10-16T11:24:35;33.97;;;29.93;;
17826;SDS011;9038;48.208;16.308;2022-10-16T11:26:42;34.20;;;30.60;;
17826;SDS011;9038;48.208;16.308;2022-10-16T11:28:47;33.07;;;29.53;;
17826;SDS011;9038;48.208;16.308;2022-10-16T11:30:53;33.30;;;29.70;;
17826;SDS011;9038;48.208;16.308;2022-10-16T11:33:03;34.10;;;30.50;;
17826;SDS011;9038;48.208;16.308;2022-10-16T11:35:14;33.93;;;30.23;;
17826;SDS011;9038;48.208;16.308;2022-10-16T11:37:23;33.33;;;29.80;;
17826;SDS011;9038;48.208;16.308;2022-10-16T11:39:31;33.53;;;29.93;;
17826;SDS011;9038;48.208;16.308;2022-10-16T11:41:35;33.25;;;29.80;;
17826;SDS011;9038;48.208;16.308;2022-10-16T11:43:40;34.20;;;30.50;;
17826;SDS011;9038;48.208;16.308;2022-10-16T11:45:46;34.97;;;30.52;;
17826;SDS011;9038;48.208;16.308;2022-10-16T11:47:57;35.95;;;31.33;;
17826;SDS011;9038;48.208;16.308;2022-10-16T11:50:05;34.58;;;30.88;;
17826;SDS011;9038;48.208;16.308;2022-10-16T11:52:16;34.83;;;31.05;;
17826;SDS011;9038;48.208;16.308;2022-10-16T11:54:22;37.25;;;32.70;;
17826;SDS011;9038;48.208;16.308;2022-10-16T11:56:35;34.38;;;30.63;;
17826;SDS011;9038;48.208;16.308;2022-10-16T11:58:41;35.50;;;31.70;;
17826;SDS011;9038;48.208;16.308;2022-10-16T12:00:55;36.53;;;32.72;;
17826;SDS011;9038;48.208;16.308;2022-10-16T12:03:05;37.42;;;33.10;;
17826;SDS011;9038;48.208;16.308;2022-10-16T12:05:20;34.75;;;30.95;;
17826;SDS011;9038;48.208;16.308;2022-10-16T12:07:27;37.15;;;33.20;;
17826;SDS011;9038;48.208;16.308;2022-10-16T12:09:37;39.47;;;35.25;;
17826;SDS011;9038;48.208;16.308;2022-10-16T12:11:40;37.55;;;33.60;;
17826;SDS011;9038;48.208;16.308;2022-10-16T12:13:43;37.58;;;33.35;;